Abbeville, Louisiana
Current Conditions -  °F | °C
As of 10:15 AM on Thursday 29 Jan 2015 (Local Time) from KIYA Reporting Station
Haze Haze  
Wind Chill: 17°   Ceiling: 300
Heat Index: 17°   Visibility: 2.5mi
Dew Point: 16°   Wind: 0mph
Humidity: 96%   Direction: NA
Pressure: 30.28"   Gusts: NA
Location:  29.97°N, 92.13°W
Report Text: KIYA 291615Z AUTO 00000KT 2 1/2SM BR OVC003 17/16 A3028 RMK AO2 T01690163
Loading
Personal Weather Stations






























Interactive Weather Map New forecast layout! Learn more

10-Day Weather Forecast

Advertisements
Track Severe Weather on mobile